Terminal Aerodrome Forecast
Issued by NWS Boston, MA

Home | Current Version | Previous Version | Text Only | Print | Product List | Glossary On
Versions: 1 2 3 4 5 6 7 8 9 10 11 12 13 14 15 16 17 18 19
000
FTUS41 KBOX 212321
TAFPVD
TAF
KPVD 212321Z 2200/2224 22007KT P6SM SCT250
     FM221100 21005KT P6SM SCT100 SCT250
     FM221600 20013G20KT P6SM SCT050 BKN100
     FM222100 20014G25KT P6SM BKN060=

USA.gov is the U.S. government's official web portal to all federal, state and local government web resources and services.